sensor_id;sensor_type;location;lat;lon;timestamp;temperature;humidity
17529;DHT22;8882;53.192;8.184;2024-03-08T05:15:25;0.70;99.90
17529;DHT22;8882;53.192;8.184;2024-03-08T05:17:51;0.60;99.90
17529;DHT22;8882;53.192;8.184;2024-03-08T05:20:16;0.50;99.90
17529;DHT22;8882;53.192;8.184;2024-03-08T05:22:42;0.60;99.90
17529;DHT22;8882;53.192;8.184;2024-03-08T05:25:08;0.60;99.90
17529;DHT22;8882;53.192;8.184;2024-03-08T05:27:35;0.60;99.90
17529;DHT22;8882;53.192;8.184;2024-03-08T05:30:05;0.50;99.90
17529;DHT22;8882;53.192;8.184;2024-03-08T05:32:31;0.50;99.90
17529;DHT22;8882;53.192;8.184;2024-03-08T05:34:56;0.50;99.90
17529;DHT22;8882;53.192;8.184;2024-03-08T05:37:22;0.50;99.90
17529;DHT22;8882;53.192;8.184;2024-03-08T05:39:47;0.50;99.90
17529;DHT22;8882;53.192;8.184;2024-03-08T05:42:13;0.50;99.90
17529;DHT22;8882;53.192;8.184;2024-03-08T05:44:39;0.50;99.90
17529;DHT22;8882;53.192;8.184;2024-03-08T05:47:06;0.50;99.90
17529;DHT22;8882;53.192;8.184;2024-03-08T05:49:32;0.70;99.90
17529;DHT22;8882;53.192;8.184;2024-03-08T05:51:59;0.50;99.90
17529;DHT22;8882;53.192;8.184;2024-03-08T05:54:25;0.50;99.90
17529;DHT22;8882;53.192;8.184;2024-03-08T05:56:52;0.50;99.90
17529;DHT22;8882;53.192;8.184;2024-03-08T05:59:18;0.50;99.90
17529;DHT22;8882;53.192;8.184;2024-03-08T06:01:43;0.50;99.90
17529;DHT22;8882;53.192;8.184;2024-03-08T06:04:11;0.50;99.90
17529;DHT22;8882;53.192;8.184;2024-03-08T06:06:36;0.50;99.90
17529;DHT22;8882;53.192;8.184;2024-03-08T06:09:03;0.40;99.90
17529;DHT22;8882;53.192;8.184;2024-03-08T06:11:35;0.40;99.90
17529;DHT22;8882;53.192;8.184;2024-03-08T06:14:00;0.50;99.90
17529;DHT22;8882;53.192;8.184;2024-03-08T06:16:29;0.50;99.90
17529;DHT22;8882;53.192;8.184;2024-03-08T06:18:56;0.50;99.90
17529;DHT22;8882;53.192;8.184;2024-03-08T06:21:23;0.50;99.90
17529;DHT22;8882;53.192;8.184;2024-03-08T06:23:48;0.50;99.90
17529;DHT22;8882;53.192;8.184;2024-03-08T06:26:14;0.50;99.90
17529;DHT22;8882;53.192;8.184;2024-03-08T06:28:39;0.50;99.90
17529;DHT22;8882;53.192;8.184;2024-03-08T06:31:05;0.60;99.90
17529;DHT22;8882;53.192;8.184;2024-03-08T06:33:30;0.40;99.90
17529;DHT22;8882;53.192;8.184;2024-03-08T06:35:57;0.50;99.90
17529;DHT22;8882;53.192;8.184;2024-03-08T06:38:26;0.50;99.90
17529;DHT22;8882;53.192;8.184;2024-03-08T06:40:52;0.50;99.90
17529;DHT22;8882;53.192;8.184;2024-03-08T06:43:18;0.50;99.90
17529;DHT22;8882;53.192;8.184;2024-03-08T06:45:47;0.60;99.90
17529;DHT22;8882;53.192;8.184;2024-03-08T06:48:19;0.60;99.90
17529;DHT22;8882;53.192;8.184;2024-03-08T06:50:48;0.60;99.90
17529;DHT22;8882;53.192;8.184;2024-03-08T06:53:14;0.70;99.90
17529;DHT22;8882;53.192;8.184;2024-03-08T06:55:40;0.80;99.90
17529;DHT22;8882;53.192;8.184;2024-03-08T06:58:05;0.80;99.90
17529;DHT22;8882;53.192;8.184;2024-03-08T07:00:32;0.80;99.90
17529;DHT22;8882;53.192;8.184;2024-03-08T07:02:58;0.90;99.90
17529;DHT22;8882;53.192;8.184;2024-03-08T07:05:27;0.90;99.90
17529;DHT22;8882;53.192;8.184;2024-03-08T07:07:52;0.90;99.90
17529;DHT22;8882;53.192;8.184;2024-03-08T07:10:23;1.00;99.90
17529;DHT22;8882;53.192;8.184;2024-03-08T07:12:52;1.00;99.90
17529;DHT22;8882;53.192;8.184;2024-03-08T07:15:18;1.10;99.90
17529;DHT22;8882;53.192;8.184;2024-03-08T07:17:45;1.10;99.90
17529;DHT22;8882;53.192;8.184;2024-03-08T07:20:11;1.20;99.90
17529;DHT22;8882;53.192;8.184;2024-03-08T07:22:39;1.30;99.90
17529;DHT22;8882;53.192;8.184;2024-03-08T07:25:05;1.30;99.90
17529;DHT22;8882;53.192;8.184;2024-03-08T07:27:51;1.40;99.90
17529;DHT22;8882;53.192;8.184;2024-03-08T07:30:24;1.50;99.90
17529;DHT22;8882;53.192;8.184;2024-03-08T07:33:08;1.60;99.90
17529;DHT22;8882;53.192;8.184;2024-03-08T07:35:37;1.70;99.90
17529;DHT22;8882;53.192;8.184;2024-03-08T07:38:04;1.70;99.90
17529;DHT22;8882;53.192;8.184;2024-03-08T07:40:31;1.80;99.90
17529;DHT22;8882;53.192;8.184;2024-03-08T07:42:57;1.80;99.90
17529;DHT22;8882;53.192;8.184;2024-03-08T07:45:23;2.10;99.90
17529;DHT22;8882;53.192;8.184;2024-03-08T07:47:49;2.10;99.90
17529;DHT22;8882;53.192;8.184;2024-03-08T07:50:16;2.20;99.90
17529;DHT22;8882;53.192;8.184;2024-03-08T07:52:42;2.30;99.90
17529;DHT22;8882;53.192;8.184;2024-03-08T07:55:08;2.30;99.90
17529;DHT22;8882;53.192;8.184;2024-03-08T07:57:35;2.30;99.90
17529;DHT22;8882;53.192;8.184;2024-03-08T08:00:04;2.40;99.90
17529;DHT22;8882;53.192;8.184;2024-03-08T08:02:32;2.40;99.90
17529;DHT22;8882;53.192;8.184;2024-03-08T08:04:58;2.50;99.90
17529;DHT22;8882;53.192;8.184;2024-03-08T08:07:24;2.50;99.90
17529;DHT22;8882;53.192;8.184;2024-03-08T08:09:50;2.50;99.90
17529;DHT22;8882;53.192;8.184;2024-03-08T08:12:15;2.50;99.90
17529;DHT22;8882;53.192;8.184;2024-03-08T08:14:41;2.60;99.90
17529;DHT22;8882;53.192;8.184;2024-03-08T08:17:07;2.60;99.90
17529;DHT22;8882;53.192;8.184;2024-03-08T08:19:34;2.80;99.90
17529;DHT22;8882;53.192;8.184;2024-03-08T08:22:01;2.80;99.90
17529;DHT22;8882;53.192;8.184;2024-03-08T08:24:27;2.80;99.90
17529;DHT22;8882;53.192;8.184;2024-03-08T08:26:53;2.80;99.90
17529;DHT22;8882;53.192;8.184;2024-03-08T08:29:19;2.80;99.90
17529;DHT22;8882;53.192;8.184;2024-03-08T08:31:45;2.90;99.90
17529;DHT22;8882;53.192;8.184;2024-03-08T08:34:11;2.90;99.90
17529;DHT22;8882;53.192;8.184;2024-03-08T08:36:40;2.90;99.90
17529;DHT22;8882;53.192;8.184;2024-03-08T08:39:05;2.90;99.90
17529;DHT22;8882;53.192;8.184;2024-03-08T08:41:37;3.00;99.90
17529;DHT22;8882;53.192;8.184;2024-03-08T08:44:03;3.00;99.90
17529;DHT22;8882;53.192;8.184;2024-03-08T08:46:29;3.00;99.90
17529;DHT22;8882;53.192;8.184;2024-03-08T08:48:54;3.10;99.90
17529;DHT22;8882;53.192;8.184;2024-03-08T08:51:20;3.10;99.90
17529;DHT22;8882;53.192;8.184;2024-03-08T08:53:46;3.30;99.90
17529;DHT22;8882;53.192;8.184;2024-03-08T08:56:13;3.40;99.90
17529;DHT22;8882;53.192;8.184;2024-03-08T08:58:39;3.50;99.90
17529;DHT22;8882;53.192;8.184;2024-03-08T09:01:07;3.50;99.90
17529;DHT22;8882;53.192;8.184;2024-03-08T09:03:33;3.60;99.90
17529;DHT22;8882;53.192;8.184;2024-03-08T09:06:00;3.80;99.90
17529;DHT22;8882;53.192;8.184;2024-03-08T09:08:25;3.90;99.90
17529;DHT22;8882;53.192;8.184;2024-03-08T09:10:51;4.00;99.90
17529;DHT22;8882;53.192;8.184;2024-03-08T09:13:16;4.00;99.90
17529;DHT22;8882;53.192;8.184;2024-03-08T09:15:43;4.00;99.90
17529;DHT22;8882;53.192;8.184;2024-03-08T09:18:09;4.10;99.90
17529;DHT22;8882;53.192;8.184;2024-03-08T09:20:35;4.10;99.90
17529;DHT22;8882;53.192;8.184;2024-03-08T09:23:02;4.20;99.90
17529;DHT22;8882;53.192;8.184;2024-03-08T09:25:29;4.20;99.90
17529;DHT22;8882;53.192;8.184;2024-03-08T09:27:54;4.30;99.90
17529;DHT22;8882;53.192;8.184;2024-03-08T09:30:20;4.40;99.90
17529;DHT22;8882;53.192;8.184;2024-03-08T09:32:47;4.50;99.90
17529;DHT22;8882;53.192;8.184;2024-03-08T09:35:12;4.70;99.90
17529;DHT22;8882;53.192;8.184;2024-03-08T09:37:38;4.80;99.90
17529;DHT22;8882;53.192;8.184;2024-03-08T09:40:04;4.80;99.90
17529;DHT22;8882;53.192;8.184;2024-03-08T09:42:35;4.90;99.90
17529;DHT22;8882;53.192;8.184;2024-03-08T09:45:08;5.00;99.90
17529;DHT22;8882;53.192;8.184;2024-03-08T09:47:37;5.00;99.90
17529;DHT22;8882;53.192;8.184;2024-03-08T09:50:06;5.10;99.90
17529;DHT22;8882;53.192;8.184;2024-03-08T09:52:35;5.20;99.90
17529;DHT22;8882;53.192;8.184;2024-03-08T09:55:01;5.20;99.90
17529;DHT22;8882;53.192;8.184;2024-03-08T09:57:27;5.20;99.90
17529;DHT22;8882;53.192;8.184;2024-03-08T09:59:52;5.30;99.90
17529;DHT22;8882;53.192;8.184;2024-03-08T10:02:18;5.30;99.90
17529;DHT22;8882;53.192;8.184;2024-03-08T10:04:44;5.40;99.90
17529;DHT22;8882;53.192;8.184;2024-03-08T10:07:12;5.60;99.90
17529;DHT22;8882;53.192;8.184;2024-03-08T10:09:38;5.80;99.90
17529;DHT22;8882;53.192;8.184;2024-03-08T10:12:05;5.70;99.90
17529;DHT22;8882;53.192;8.184;2024-03-08T10:14:31;5.80;99.90
17529;DHT22;8882;53.192;8.184;2024-03-08T10:16:57;5.80;99.90
17529;DHT22;8882;53.192;8.184;2024-03-08T10:19:25;5.90;99.90
17529;DHT22;8882;53.192;8.184;2024-03-08T10:21:51;6.00;99.90
17529;DHT22;8882;53.192;8.184;2024-03-08T10:24:22;6.00;99.90
17529;DHT22;8882;53.192;8.184;2024-03-08T10:26:52;5.90;99.90
17529;DHT22;8882;53.192;8.184;2024-03-08T10:29:18;5.90;99.90
17529;DHT22;8882;53.192;8.184;2024-03-08T10:31:44;6.00;99.90
17529;DHT22;8882;53.192;8.184;2024-03-08T10:34:10;6.10;99.90
17529;DHT22;8882;53.192;8.184;2024-03-08T10:36:36;6.20;99.90
17529;DHT22;8882;53.192;8.184;2024-03-08T10:39:27;6.40;99.90
17529;DHT22;8882;53.192;8.184;2024-03-08T10:41:58;6.40;99.90
17529;DHT22;8882;53.192;8.184;2024-03-08T10:47:19;6.80;99.90
17529;DHT22;8882;53.192;8.184;2024-03-08T10:50:10;6.80;99.90
17529;DHT22;8882;53.192;8.184;2024-03-08T10:52:38;6.80;99.90
17529;DHT22;8882;53.192;8.184;2024-03-08T10:55:05;6.80;99.90
17529;DHT22;8882;53.192;8.184;2024-03-08T10:57:38;6.80;99.90
17529;DHT22;8882;53.192;8.184;2024-03-08T11:00:06;7.00;99.90
17529;DHT22;8882;53.192;8.184;2024-03-08T11:02:35;7.20;99.90
17529;DHT22;8882;53.192;8.184;2024-03-08T11:05:02;7.20;99.90
17529;DHT22;8882;53.192;8.184;2024-03-08T11:07:33;7.20;99.90
17529;DHT22;8882;53.192;8.184;2024-03-08T11:10:02;7.20;99.90
17529;DHT22;8882;53.192;8.184;2024-03-08T11:12:38;7.20;99.90
17529;DHT22;8882;53.192;8.184;2024-03-08T11:15:13;7.30;99.90
17529;DHT22;8882;53.192;8.184;2024-03-08T11:20:12;7.30;99.90
17529;DHT22;8882;53.192;8.184;2024-03-08T11:22:53;7.20;99.90
17529;DHT22;8882;53.192;8.184;2024-03-08T11:25:41;7.40;99.90
17529;DHT22;8882;53.192;8.184;2024-03-08T11:28:12;7.40;99.90
17529;DHT22;8882;53.192;8.184;2024-03-08T11:31:28;7.40;99.90
17529;DHT22;8882;53.192;8.184;2024-03-08T11:33:30;7.40;99.90
17529;DHT22;8882;53.192;8.184;2024-03-08T11:36:23;7.60;99.90
17529;DHT22;8882;53.192;8.184;2024-03-08T11:38:50;7.50;99.90
17529;DHT22;8882;53.192;8.184;2024-03-08T11:41:19;7.50;99.90
17529;DHT22;8882;53.192;8.184;2024-03-08T11:43:45;7.60;99.90
17529;DHT22;8882;53.192;8.184;2024-03-08T11:46:12;7.70;99.90
17529;DHT22;8882;53.192;8.184;2024-03-08T11:48:39;7.60;99.90
17529;DHT22;8882;53.192;8.184;2024-03-08T11:51:08;7.60;99.90
17529;DHT22;8882;53.192;8.184;2024-03-08T11:53:33;7.60;99.90
17529;DHT22;8882;53.192;8.184;2024-03-08T11:56:11;7.70;99.90
17529;DHT22;8882;53.192;8.184;2024-03-08T11:58:38;7.70;99.90
17529;DHT22;8882;53.192;8.184;2024-03-08T12:01:07;7.90;99.90
17529;DHT22;8882;53.192;8.184;2024-03-08T12:03:39;7.90;99.90
17529;DHT22;8882;53.192;8.184;2024-03-08T12:06:08;7.90;99.90
17529;DHT22;8882;53.192;8.184;2024-03-08T12:08:35;7.90;99.90
17529;DHT22;8882;53.192;8.184;2024-03-08T12:11:00;7.80;99.90
17529;DHT22;8882;53.192;8.184;2024-03-08T12:13:27;8.00;99.90
17529;DHT22;8882;53.192;8.184;2024-03-08T12:15:56;8.10;99.90
17529;DHT22;8882;53.192;8.184;2024-03-08T12:18:24;8.20;99.90
17529;DHT22;8882;53.192;8.184;2024-03-08T12:20:49;8.20;99.90
17529;DHT22;8882;53.192;8.184;2024-03-08T12:23:15;8.00;99.90
17529;DHT22;8882;53.192;8.184;2024-03-08T12:25:42;8.00;99.90
17529;DHT22;8882;53.192;8.184;2024-03-08T12:28:09;8.20;99.90
17529;DHT22;8882;53.192;8.184;2024-03-08T12:30:47;8.30;99.90
17529;DHT22;8882;53.192;8.184;2024-03-08T12:33:13;8.20;99.90
17529;DHT22;8882;53.192;8.184;2024-03-08T12:35:39;8.10;99.90
17529;DHT22;8882;53.192;8.184;2024-03-08T12:38:04;8.20;99.90
17529;DHT22;8882;53.192;8.184;2024-03-08T12:40:32;8.30;99.90
17529;DHT22;8882;53.192;8.184;2024-03-08T12:43:00;8.30;99.90
17529;DHT22;8882;53.192;8.184;2024-03-08T12:45:26;8.40;99.90
17529;DHT22;8882;53.192;8.184;2024-03-08T12:47:53;8.40;99.90
17529;DHT22;8882;53.192;8.184;2024-03-08T12:50:19;8.50;99.90
17529;DHT22;8882;53.192;8.184;2024-03-08T12:52:45;8.50;99.90
17529;DHT22;8882;53.192;8.184;2024-03-08T12:55:10;8.50;99.90
17529;DHT22;8882;53.192;8.184;2024-03-08T12:57:37;8.50;99.90
17529;DHT22;8882;53.192;8.184;2024-03-08T13:00:04;8.40;99.90
17529;DHT22;8882;53.192;8.184;2024-03-08T13:02:30;8.30;99.90
17529;DHT22;8882;53.192;8.184;2024-03-08T13:04:57;8.30;99.90
17529;DHT22;8882;53.192;8.184;2024-03-08T13:07:24;8.40;99.90
17529;DHT22;8882;53.192;8.184;2024-03-08T13:09:52;8.50;99.90
17529;DHT22;8882;53.192;8.184;2024-03-08T13:12:18;8.40;99.90
17529;DHT22;8882;53.192;8.184;2024-03-08T13:14:45;8.30;99.90
17529;DHT22;8882;53.192;8.184;2024-03-08T13:17:12;8.30;99.90
17529;DHT22;8882;53.192;8.184;2024-03-08T13:19:38;8.30;99.90
17529;DHT22;8882;53.192;8.184;2024-03-08T13:22:04;8.30;99.90
17529;DHT22;8882;53.192;8.184;2024-03-08T13:24:30;8.40;99.90
17529;DHT22;8882;53.192;8.184;2024-03-08T13:26:55;8.40;99.90
17529;DHT22;8882;53.192;8.184;2024-03-08T13:29:21;8.40;99.90
17529;DHT22;8882;53.192;8.184;2024-03-08T13:31:47;8.50;99.90
17529;DHT22;8882;53.192;8.184;2024-03-08T13:34:19;8.50;99.90
17529;DHT22;8882;53.192;8.184;2024-03-08T13:36:53;8.50;99.90
17529;DHT22;8882;53.192;8.184;2024-03-08T13:39:19;8.50;99.90
17529;DHT22;8882;53.192;8.184;2024-03-08T13:41:46;8.50;99.90
17529;DHT22;8882;53.192;8.184;2024-03-08T13:44:12;8.40;99.90
17529;DHT22;8882;53.192;8.184;2024-03-08T13:46:37;8.50;99.90
17529;DHT22;8882;53.192;8.184;2024-03-08T13:49:05;8.50;99.90
17529;DHT22;8882;53.192;8.184;2024-03-08T13:51:35;8.50;99.90
17529;DHT22;8882;53.192;8.184;2024-03-08T13:54:01;8.50;99.90
17529;DHT22;8882;53.192;8.184;2024-03-08T13:56:30;8.50;99.90
17529;DHT22;8882;53.192;8.184;2024-03-08T13:58:56;8.50;99.90
17529;DHT22;8882;53.192;8.184;2024-03-08T14:01:22;8.60;99.90
17529;DHT22;8882;53.192;8.184;2024-03-08T14:03:48;8.50;99.90
17529;DHT22;8882;53.192;8.184;2024-03-08T14:06:14;8.50;99.90
17529;DHT22;8882;53.192;8.184;2024-03-08T14:08:39;8.60;99.90
17529;DHT22;8882;53.192;8.184;2024-03-08T14:11:05;8.50;99.90
17529;DHT22;8882;53.192;8.184;2024-03-08T14:13:42;8.50;99.90
17529;DHT22;8882;53.192;8.184;2024-03-08T14:16:09;8.50;99.90
17529;DHT22;8882;53.192;8.184;2024-03-08T14:18:35;8.50;99.90
17529;DHT22;8882;53.192;8.184;2024-03-08T14:21:02;8.50;99.90
17529;DHT22;8882;53.192;8.184;2024-03-08T14:23:29;8.50;99.90
17529;DHT22;8882;53.192;8.184;2024-03-08T14:25:55;8.50;99.90
17529;DHT22;8882;53.192;8.184;2024-03-08T14:28:21;8.50;99.90
17529;DHT22;8882;53.192;8.184;2024-03-08T14:30:48;8.40;99.90
17529;DHT22;8882;53.192;8.184;2024-03-08T14:33:14;8.50;99.90
17529;DHT22;8882;53.192;8.184;2024-03-08T14:35:40;8.50;99.90
17529;DHT22;8882;53.192;8.184;2024-03-08T14:38:06;8.60;99.90
17529;DHT22;8882;53.192;8.184;2024-03-08T14:40:36;8.50;99.90
17529;DHT22;8882;53.192;8.184;2024-03-08T14:43:02;8.50;99.90
17529;DHT22;8882;53.192;8.184;2024-03-08T14:45:28;8.50;99.90
17529;DHT22;8882;53.192;8.184;2024-03-08T14:47:54;8.40;99.90
17529;DHT22;8882;53.192;8.184;2024-03-08T14:50:21;8.40;99.90
17529;DHT22;8882;53.192;8.184;2024-03-08T14:52:50;8.50;99.90
17529;DHT22;8882;53.192;8.184;2024-03-08T14:55:16;8.50;99.90
17529;DHT22;8882;53.192;8.184;2024-03-08T14:57:45;8.60;99.90
17529;DHT22;8882;53.192;8.184;2024-03-08T15:00:14;8.60;99.90
17529;DHT22;8882;53.192;8.184;2024-03-08T15:02:54;8.60;99.90
17529;DHT22;8882;53.192;8.184;2024-03-08T15:05:20;8.60;99.90
17529;DHT22;8882;53.192;8.184;2024-03-08T15:07:54;8.50;99.90
17529;DHT22;8882;53.192;8.184;2024-03-08T15:10:20;8.50;99.90
17529;DHT22;8882;53.192;8.184;2024-03-08T15:12:50;8.60;99.90
17529;DHT22;8882;53.192;8.184;2024-03-08T15:15:18;8.50;99.90
17529;DHT22;8882;53.192;8.184;2024-03-08T15:17:44;8.50;99.90
17529;DHT22;8882;53.192;8.184;2024-03-08T15:20:13;8.50;99.90
17529;DHT22;8882;53.192;8.184;2024-03-08T15:22:43;8.50;99.90
17529;DHT22;8882;53.192;8.184;2024-03-08T15:25:11;8.60;99.90
17529;DHT22;8882;53.192;8.184;2024-03-08T15:27:40;8.50;99.90
17529;DHT22;8882;53.192;8.184;2024-03-08T15:30:07;8.50;99.90
17529;DHT22;8882;53.192;8.184;2024-03-08T15:32:39;8.50;99.90
17529;DHT22;8882;53.192;8.184;2024-03-08T15:35:04;9.00;99.90
17529;DHT22;8882;53.192;8.184;2024-03-08T15:37:30;9.10;99.90
17529;DHT22;8882;53.192;8.184;2024-03-08T15:39:55;9.00;99.90
17529;DHT22;8882;53.192;8.184;2024-03-08T15:42:21;8.90;99.90
17529;DHT22;8882;53.192;8.184;2024-03-08T15:44:48;8.80;99.90
17529;DHT22;8882;53.192;8.184;2024-03-08T15:47:13;8.80;99.90
17529;DHT22;8882;53.192;8.184;2024-03-08T15:49:39;8.70;99.90
17529;DHT22;8882;53.192;8.184;2024-03-08T15:52:05;8.60;99.90
17529;DHT22;8882;53.192;8.184;2024-03-08T15:54:31;8.60;99.90
17529;DHT22;8882;53.192;8.184;2024-03-08T15:56:57;8.50;99.90
17529;DHT22;8882;53.192;8.184;2024-03-08T15:59:23;8.50;99.90
17529;DHT22;8882;53.192;8.184;2024-03-08T16:01:48;8.50;99.90
17529;DHT22;8882;53.192;8.184;2024-03-08T16:04:16;8.50;99.90
17529;DHT22;8882;53.192;8.184;2024-03-08T16:06:42;8.40;99.90
17529;DHT22;8882;53.192;8.184;2024-03-08T16:09:09;8.30;99.90
17529;DHT22;8882;53.192;8.184;2024-03-08T16:11:40;8.30;99.90
17529;DHT22;8882;53.192;8.184;2024-03-08T16:14:06;8.30;99.90
17529;DHT22;8882;53.192;8.184;2024-03-08T16:16:37;8.30;99.90
17529;DHT22;8882;53.192;8.184;2024-03-08T16:19:03;8.20;99.90
17529;DHT22;8882;53.192;8.184;2024-03-08T16:21:33;8.10;99.90
17529;DHT22;8882;53.192;8.184;2024-03-08T16:23:58;8.10;99.90
17529;DHT22;8882;53.192;8.184;2024-03-08T16:26:25;8.10;99.90
17529;DHT22;8882;53.192;8.184;2024-03-08T16:28:53;8.10;99.90
17529;DHT22;8882;53.192;8.184;2024-03-08T16:31:19;8.10;99.90
17529;DHT22;8882;53.192;8.184;2024-03-08T16:33:44;8.10;99.90
17529;DHT22;8882;53.192;8.184;2024-03-08T16:36:10;8.00;99.90
17529;DHT22;8882;53.192;8.184;2024-03-08T16:38:38;8.30;99.90
17529;DHT22;8882;53.192;8.184;2024-03-08T16:41:04;8.20;99.90
17529;DHT22;8882;53.192;8.184;2024-03-08T16:43:31;8.10;99.90
17529;DHT22;8882;53.192;8.184;2024-03-08T16:45:57;8.00;99.90
17529;DHT22;8882;53.192;8.184;2024-03-08T16:48:25;7.90;99.90
17529;DHT22;8882;53.192;8.184;2024-03-08T16:50:52;7.90;99.90
17529;DHT22;8882;53.192;8.184;2024-03-08T16:53:19;8.10;99.90
17529;DHT22;8882;53.192;8.184;2024-03-08T16:55:45;8.00;99.90
17529;DHT22;8882;53.192;8.184;2024-03-08T16:58:12;7.90;99.90
17529;DHT22;8882;53.192;8.184;2024-03-08T17:00:39;7.80;99.90
17529;DHT22;8882;53.192;8.184;2024-03-08T17:03:07;7.70;99.90
17529;DHT22;8882;53.192;8.184;2024-03-08T17:05:33;7.60;99.90
17529;DHT22;8882;53.192;8.184;2024-03-08T17:08:00;7.60;99.90
17529;DHT22;8882;53.192;8.184;2024-03-08T17:10:29;7.50;99.90
17529;DHT22;8882;53.192;8.184;2024-03-08T17:12:56;7.50;99.90
17529;DHT22;8882;53.192;8.184;2024-03-08T17:15:25;7.40;99.90
17529;DHT22;8882;53.192;8.184;2024-03-08T17:17:52;7.40;99.90
17529;DHT22;8882;53.192;8.184;2024-03-08T17:20:19;7.30;99.90
17529;DHT22;8882;53.192;8.184;2024-03-08T17:22:49;7.30;99.90
17529;DHT22;8882;53.192;8.184;2024-03-08T17:25:18;7.20;99.90
17529;DHT22;8882;53.192;8.184;2024-03-08T17:27:59;7.20;99.90
17529;DHT22;8882;53.192;8.184;2024-03-08T17:30:27;7.10;99.90
17529;DHT22;8882;53.192;8.184;2024-03-08T17:32:55;7.10;99.90
17529;DHT22;8882;53.192;8.184;2024-03-08T17:35:22;7.10;99.90
17529;DHT22;8882;53.192;8.184;2024-03-08T17:37:49;7.00;99.90
17529;DHT22;8882;53.192;8.184;2024-03-08T17:40:21;7.00;99.90
17529;DHT22;8882;53.192;8.184;2024-03-08T17:42:58;7.00;99.90
17529;DHT22;8882;53.192;8.184;2024-03-08T17:45:25;6.90;99.90
17529;DHT22;8882;53.192;8.184;2024-03-08T17:47:53;6.90;99.90
17529;DHT22;8882;53.192;8.184;2024-03-08T17:50:21;6.80;99.90
17529;DHT22;8882;53.192;8.184;2024-03-08T17:52:48;6.80;99.90
17529;DHT22;8882;53.192;8.184;2024-03-08T17:55:16;6.70;99.90
17529;DHT22;8882;53.192;8.184;2024-03-08T17:57:46;6.70;99.90
17529;DHT22;8882;53.192;8.184;2024-03-08T18:00:15;6.70;99.90
17529;DHT22;8882;53.192;8.184;2024-03-08T18:02:44;6.60;99.90
17529;DHT22;8882;53.192;8.184;2024-03-08T18:05:10;6.60;99.90
17529;DHT22;8882;53.192;8.184;2024-03-08T18:07:39;6.60;99.90
17529;DHT22;8882;53.192;8.184;2024-03-08T18:10:05;6.60;99.90
17529;DHT22;8882;53.192;8.184;2024-03-08T18:12:30;6.50;99.90
17529;DHT22;8882;53.192;8.184;2024-03-08T18:14:58;6.50;99.90
17529;DHT22;8882;53.192;8.184;2024-03-08T18:17:23;6.50;99.90
17529;DHT22;8882;53.192;8.184;2024-03-08T18:19:49;6.50;99.90
17529;DHT22;8882;53.192;8.184;2024-03-08T18:22:16;6.40;99.90
17529;DHT22;8882;53.192;8.184;2024-03-08T18:24:42;6.40;99.90
17529;DHT22;8882;53.192;8.184;2024-03-08T18:27:07;6.40;99.90
17529;DHT22;8882;53.192;8.184;2024-03-08T18:29:34;6.30;99.90
17529;DHT22;8882;53.192;8.184;2024-03-08T18:32:01;6.30;99.90
17529;DHT22;8882;53.192;8.184;2024-03-08T18:34:28;6.30;99.90
17529;DHT22;8882;53.192;8.184;2024-03-08T18:36:53;6.20;99.90
17529;DHT22;8882;53.192;8.184;2024-03-08T18:39:19;6.20;99.90
17529;DHT22;8882;53.192;8.184;2024-03-08T18:41:51;6.20;99.90
17529;DHT22;8882;53.192;8.184;2024-03-08T18:44:18;6.20;99.90
17529;DHT22;8882;53.192;8.184;2024-03-08T18:46:43;6.10;99.90
17529;DHT22;8882;53.192;8.184;2024-03-08T18:49:09;6.10;99.90
17529;DHT22;8882;53.192;8.184;2024-03-08T18:51:35;6.10;99.90
17529;DHT22;8882;53.192;8.184;2024-03-08T18:54:01;6.00;99.90
17529;DHT22;8882;53.192;8.184;2024-03-08T18:56:28;6.00;99.90
17529;DHT22;8882;53.192;8.184;2024-03-08T18:58:55;5.90;99.90
17529;DHT22;8882;53.192;8.184;2024-03-08T19:01:20;5.90;99.90
17529;DHT22;8882;53.192;8.184;2024-03-08T19:03:51;5.80;99.90
17529;DHT22;8882;53.192;8.184;2024-03-08T19:06:16;5.80;99.90
17529;DHT22;8882;53.192;8.184;2024-03-08T19:08:44;5.80;99.90
17529;DHT22;8882;53.192;8.184;2024-03-08T19:11:09;5.80;99.90
17529;DHT22;8882;53.192;8.184;2024-03-08T21:24:42;4.90;99.90
17529;DHT22;8882;53.192;8.184;2024-03-08T21:27:07;4.70;99.90
17529;DHT22;8882;53.192;8.184;2024-03-08T21:29:33;4.70;99.90
17529;DHT22;8882;53.192;8.184;2024-03-08T21:32:00;4.70;99.90
17529;DHT22;8882;53.192;8.184;2024-03-08T21:34:29;4.60;99.90
17529;DHT22;8882;53.192;8.184;2024-03-08T21:36:55;4.60;99.90
17529;DHT22;8882;53.192;8.184;2024-03-08T21:39:20;4.60;99.90
17529;DHT22;8882;53.192;8.184;2024-03-08T21:41:49;4.60;99.90
17529;DHT22;8882;53.192;8.184;2024-03-08T21:44:14;4.60;99.90
17529;DHT22;8882;53.192;8.184;2024-03-08T21:46:43;4.50;99.90
17529;DHT22;8882;53.192;8.184;2024-03-08T21:49:09;4.50;99.90
17529;DHT22;8882;53.192;8.184;2024-03-08T21:51:36;4.50;99.90
17529;DHT22;8882;53.192;8.184;2024-03-08T21:54:14;4.40;99.90
17529;DHT22;8882;53.192;8.184;2024-03-08T21:56:40;4.50;99.90
17529;DHT22;8882;53.192;8.184;2024-03-08T21:59:05;4.40;99.90
17529;DHT22;8882;53.192;8.184;2024-03-08T22:01:31;4.40;99.90
17529;DHT22;8882;53.192;8.184;2024-03-08T22:03:57;4.40;99.90
17529;DHT22;8882;53.192;8.184;2024-03-08T22:06:24;4.30;99.90
17529;DHT22;8882;53.192;8.184;2024-03-08T22:08:50;4.30;99.90
17529;DHT22;8882;53.192;8.184;2024-03-08T22:11:16;4.20;99.90
17529;DHT22;8882;53.192;8.184;2024-03-08T22:13:41;4.30;99.90
17529;DHT22;8882;53.192;8.184;2024-03-08T22:16:07;4.20;99.90
17529;DHT22;8882;53.192;8.184;2024-03-08T22:18:36;4.20;99.90
17529;DHT22;8882;53.192;8.184;2024-03-08T22:21:03;4.20;99.90
17529;DHT22;8882;53.192;8.184;2024-03-08T22:23:28;4.30;99.90
17529;DHT22;8882;53.192;8.184;2024-03-08T22:25:54;4.20;99.90
17529;DHT22;8882;53.192;8.184;2024-03-08T22:28:20;4.20;99.90
